Latest Weather Observations for Trangie

IDN60801

Issued at 3:35 pm EDT Friday 31 October 2014 (issued every 30 minutes, with the page automatically refreshed every 10 minutes)

About weather observations | Map of weather stations | Latest weather observations for NSW | Other Formats
Station Details ID: 051049 Name: TRANGIE RESEARCH STATION AWS Lat: -31.99 Lon: 147.95 Height: 215.0 m
Data from the previous 72 hours. | See also: Recent months at Trangie
Date/Time
EDT
Temp
°C
App
Temp
°C
Dew
Point
Rel
Hum
%
Delta-T
°C
Wind Press
QNH
hPa
Press
MSL
hPa
Rain
since 9 am
mm
Dir
 
Spd
km/h
Gust
km/h
Spd
kts
Gust
kts
31/03:30pm 36.4 30.0 -1.5 9 18.7 N 22 32 12 17 1007.0 1006.5 0.0
31/03:00pm 36.1 30.3 -1.7 9 18.5 N 19 35 10 19 1007.5 1007.0 0.0
31/02:30pm 35.6 29.5 -2.1 9 18.2 N 20 35 11 19 1008.1 1007.6 0.0
31/02:00pm 35.8 28.2 -2.0 9 18.4 NNW 28 44 15 24 1009.0 1008.5 0.0
31/01:48pm 36.6 28.9 -3.0 8 19.0 N 28 46 15 25 1009.3 1008.8 0.0
31/01:30pm 36.1 28.2 -1.7 9 18.5 NW 30 44 16 24 1009.5 1009.0 0.0
31/01:00pm 35.2 28.7 -2.4 9 18.1 NNW 22 32 12 17 1010.1 1009.6 0.0
31/12:30pm 35.4 29.9 0.5 11 17.6 N 19 28 10 15 1010.6 1010.1 0.0
31/12:00pm 34.8 28.3 0.0 11 17.3 N 24 41 13 22 1011.4 1010.9 0.0
31/11:30am 34.8 29.2 1.2 12 17.1 N 20 35 11 19 1011.9 1011.4 0.0
31/11:00am 32.9 26.7 1.9 14 15.7 N 24 37 13 20 1012.3 1011.8 0.0
31/10:30am 32.6 25.6 1.7 14 15.6 N 28 39 15 21 1012.8 1012.3 0.0
31/10:00am 32.1 25.0 -0.9 12 15.9 N 26 43 14 23 1013.1 1012.7 0.0
31/09:30am 30.9 25.6 -0.7 13 15.2 N 17 24 9 13 1013.3 1012.8 0.0
31/09:00am 28.6 24.6 0.3 16 13.6 NNE 11 17 6 9 1013.3 1012.8 0.0
31/08:30am 25.5 21.8 0.2 19 11.9 NNE 9 15 5 8 1013.1 1012.7 0.0
31/08:00am 23.4 19.8 0.5 22 10.6 ENE 9 15 5 8 1012.7 1012.2 0.0
31/07:30am 20.0 16.8 1.0 28 8.7 E 7 9 4 5 1012.5 1012.0 0.0
31/07:00am 16.7 13.1 0.4 33 7.1 E 9 13 5 7 1012.3 1011.8 0.0
31/06:30am 15.4 11.6 -0.4 34 6.7 E 9 11 5 6 1012.1 1011.6 0.0
31/06:00am 15.3 11.5 -0.4 34 6.7 ENE 9 11 5 6 1012.1 1011.6 0.0
31/05:30am 15.4 12.1 0.0 35 6.6 ENE 7 11 4 6 1012.1 1011.6 0.0
31/05:00am 15.5 11.8 -0.3 34 6.7 ENE 9 11 5 6 1011.8 1011.3 0.0
31/04:30am 15.3 11.6 -0.1 35 6.6 E 9 11 5 6 1011.7 1011.2 0.0
31/04:00am 15.9 12.8 0.1 34 6.8 ENE 6 9 3 5 1011.9 1011.4 0.0
31/03:30am 15.6 11.9 0.2 35 6.6 E 9 11 5 6 1011.8 1011.3 0.0
31/03:00am 15.9 12.7 0.5 35 6.7 E 7 9 4 5 1011.8 1011.3 0.0
31/02:30am 15.6 11.9 0.2 35 6.6 E 9 13 5 7 1011.8 1011.3 0.0
31/02:00am 14.7 11.4 -0.2 36 6.3 E 7 9 4 5 1012.1 1011.6 0.0
31/01:30am 16.5 12.8 -0.2 32 7.2 ENE 9 11 5 6 1012.5 1012.0 0.0
31/01:00am 17.5 14.2 -0.2 30 7.7 NE 7 9 4 5 1012.8 1012.3 0.0
31/12:30am 17.1 13.4 -0.1 31 7.5 NNE 9 11 5 6 1013.0 1012.6 0.0
31/12:00am 21.2 17.2 0.4 25 9.5 NNE 11 13 6 7 1013.1 1012.7 0.0
 
Date/Time
EDT
Temp
°C
App
Temp
°C
Dew
Point
Rel
Hum
%
Delta-T
°C
Wind Press
QNH
hPa
Press
MSL
hPa
Rain
since 9 am
mm
Dir
 
Spd
km/h
Gust
km/h
Spd
kts
Gust
kts
30/11:30pm 18.6 15.4 -0.2 28 8.3 NE 6 7 3 4 1013.3 1012.8 0.0
30/11:00pm 19.2 17.2 -0.2 27 8.6 CALM 0 0 0 0 1013.4 1012.9 0.0
30/10:30pm 19.4 17.5 0.4 28 8.5 CALM 0 0 0 0 1013.4 1012.9 0.0
30/10:00pm 21.3 18.2 -0.1 24 9.6 NNE 6 7 3 4 1013.4 1012.9 0.0
30/09:30pm 21.6 19.1 1.3 26 9.4 NNE 4 7 2 4 1013.4 1012.9 0.0
30/09:00pm 21.6 19.6 0.2 24 9.7 CALM 0 0 0 0 1013.3 1012.8 0.0
30/08:30pm 24.2 22.2 -0.2 20 11.2 CALM 0 0 0 0 1012.9 1012.5 0.0
30/08:00pm 25.7 23.3 -2.8 15 12.7 CALM 0 0 0 0 1012.7 1012.2 0.0
30/07:30pm 27.8 24.3 -3.1 13 13.9 W 6 7 3 4 1012.5 1012.0 0.0
30/07:00pm 31.3 27.5 -3.9 10 16.0 W 7 9 4 5 1012.2 1011.7 0.0
30/06:30pm 32.2 27.2 -4.6 9 16.7 WSW 13 22 7 12 1012.1 1011.6 0.0
30/06:00pm 32.8 27.4 -4.2 9 17.0 W 15 20 8 11 1012.0 1011.5 0.0
30/05:30pm 33.0 28.4 -4.0 9 17.0 SW 11 17 6 9 1012.1 1011.6 0.0
30/05:00pm 33.0 28.0 -4.0 9 17.0 WSW 13 20 7 11 1012.1 1011.6 0.0
30/04:30pm 32.8 28.6 -4.2 9 17.0 SSW 9 13 5 7 1012.3 1011.8 0.0
30/04:00pm 32.1 27.8 -4.7 9 16.6 WNW 9 13 5 7 1012.5 1012.0 0.0
30/03:30pm 32.7 28.5 -4.3 9 16.9 SSW 9 20 5 11 1012.7 1012.2 0.0
30/03:00pm 32.5 28.0 -3.0 10 16.6 SW 11 17 6 9 1013.3 1012.8 0.0
30/02:30pm 32.8 28.7 -2.8 10 16.7 NW 9 17 5 9 1013.8 1013.3 0.0
30/02:00pm 32.3 28.3 -1.9 11 16.2 SSE 9 15 5 8 1014.3 1013.8 0.0
30/01:30pm 30.5 25.8 -2.1 12 15.2 WNW 13 20 7 11 1014.8 1014.3 0.0
30/01:00pm 30.6 26.4 -0.9 13 15.0 S 11 19 6 10 1015.2 1014.7 0.0
30/12:30pm 30.7 27.7 1.1 15 14.6 W 6 17 3 9 1015.7 1015.2 0.0
30/12:00pm 30.1 26.1 0.6 15 14.4 NW 11 20 6 11 1016.2 1015.7 0.0
30/11:30am 29.3 25.2 2.5 18 13.4 WSW 13 24 7 13 1016.7 1016.2 0.0
30/11:00am 27.7 24.4 2.7 20 12.4 W 9 15 5 8 1016.9 1016.5 0.0
30/10:30am 27.3 24.1 3.1 21 12.1 NW 9 15 5 8 1017.0 1016.6 0.0
30/10:00am 27.2 24.9 3.0 21 12.1 N 4 7 2 4 1017.1 1016.7 0.0
30/09:30am 26.0 23.0 3.9 24 11.1 E 9 13 5 7 1016.9 1016.5 0.0
30/09:00am 24.1 20.8 4.5 28 9.8 ENE 11 15 6 8 1016.8 1016.3 0.0
30/08:30am 22.5 19.7 5.0 32 8.8 E 9 13 5 7 1016.7 1016.2 0.0
30/08:00am 19.8 17.4 5.1 38 7.2 E 7 9 4 5 1016.5 1016.0 0.0
30/07:30am 17.1 15.7 5.4 46 5.7 E 2 6 1 3 1016.4 1015.9 0.0
30/07:00am 12.6 11.4 4.8 59 3.6 CALM 0 0 0 0 1016.2 1015.7 0.0
30/06:30am 11.3 10.0 4.3 62 3.2 CALM 0 0 0 0 1016.2 1015.7 0.0
30/06:00am 10.7 9.4 4.0 63 3.0 CALM 0 0 0 0 1015.8 1015.3 0.0
30/05:30am 12.4 11.2 4.6 59 3.6 CALM 0 0 0 0 1015.5 1015.0 0.0
30/05:00am 12.9 10.5 4.3 56 4.0 SSE 6 7 3 4 1015.2 1014.7 0.0
30/04:30am 13.2 10.6 4.1 54 4.2 SSE 7 9 4 5 1015.1 1014.6 0.0
30/04:00am 12.5 10.0 4.0 56 3.9 S 6 7 3 4 1014.9 1014.4 0.0
30/03:30am 13.6 11.1 3.9 52 4.5 SSE 6 7 3 4 1014.9 1014.4 0.0
30/03:00am 14.3 13.2 4.9 53 4.4 CALM 0 6 0 3 1015.0 1014.5 0.0
30/02:30am 13.4 10.9 3.8 52 4.4 S 6 7 3 4 1015.2 1014.7 0.0
30/02:00am 13.9 12.6 4.2 52 4.5 CALM 0 0 0 0 1015.5 1015.0 0.0
30/01:30am 13.9 12.6 3.9 51 4.6 CALM 0 0 0 0 1015.5 1015.0 0.0
30/01:00am 15.4 14.2 4.5 48 5.1 CALM 0 0 0 0 1015.7 1015.2 0.0
30/12:30am 16.1 14.5 4.5 46 5.5 SSE 2 6 1 3 1015.9 1015.4 0.0
30/12:00am 15.5 13.3 3.6 45 5.5 S 4 6 2 3 1016.0 1015.5 0.0
 
Date/Time
EDT
Temp
°C
App
Temp
°C
Dew
Point
Rel
Hum
%
Delta-T
°C
Wind Press
QNH
hPa
Press
MSL
hPa
Rain
since 9 am
mm
Dir
 
Spd
km/h
Gust
km/h
Spd
kts
Gust
kts
29/11:30pm 16.7 15.3 3.4 41 6.2 CALM 0 4 0 2 1016.0 1015.5 0.0
29/11:00pm 17.7 15.2 3.6 39 6.6 SSE 6 6 3 3 1016.0 1015.5 0.0
29/10:30pm 17.6 15.1 3.9 40 6.5 SSE 6 6 3 3 1015.9 1015.4 0.0
29/10:00pm 18.0 16.1 3.1 37 7.0 SSE 2 6 1 3 1015.8 1015.3 0.0
29/09:30pm 19.0 17.2 3.2 35 7.5 SSE 2 6 1 3 1015.7 1015.2 0.0
29/09:00pm 21.4 18.6 3.1 30 8.8 SE 7 9 4 5 1015.5 1015.0 0.0
29/08:30pm 21.5 19.3 3.2 30 8.8 SSW 4 6 2 3 1015.3 1014.8 0.0
29/08:00pm 23.7 20.4 2.5 25 10.2 SW 9 11 5 6 1015.1 1014.6 0.0
29/07:30pm 24.7 21.0 2.2 23 10.9 SW 11 15 6 8 1015.0 1014.5 0.0
29/07:00pm 27.8 23.8 2.8 20 12.5 SW 13 17 7 9 1014.8 1014.3 0.0
29/06:30pm 28.9 24.4 2.2 18 13.3 SW 15 20 8 11 1014.7 1014.2 0.0
29/06:00pm 29.3 24.1 2.5 18 13.4 SW 19 24 10 13 1014.6 1014.1 0.0
29/05:30pm 29.5 25.5 2.7 18 13.5 WSW 13 20 7 11 1014.4 1013.9 0.0
29/05:00pm 29.5 25.9 2.7 18 13.5 SW 11 20 6 11 1014.2 1013.7 0.0
29/04:30pm 29.5 25.5 2.7 18 13.5 SSW 13 24 7 13 1014.5 1014.0 0.0
29/04:00pm 29.8 26.0 3.7 19 13.4 SW 13 20 7 11 1014.9 1014.4 0.0
29/03:30pm 28.8 24.4 2.9 19 13.0 S 15 24 8 13 1015.2 1014.7 0.0
29/03:00pm 28.4 24.2 4.0 21 12.5 SW 15 20 8 11 1015.7 1015.2 0.0
29/02:30pm 28.7 25.0 4.2 21 12.6 SSW 13 24 7 13 1016.2 1015.7 0.0
29/02:00pm 27.5 24.6 4.5 23 11.8 WNW 9 11 5 6 1016.5 1016.0 0.0
29/01:30pm 27.3 23.6 4.4 23 11.7 SSW 13 19 7 10 1017.0 1016.6 0.0
29/01:00pm 26.4 22.4 4.8 25 11.0 W 15 26 8 14 1017.4 1017.0 0.0
29/12:30pm 25.4 21.0 4.5 26 10.6 SW 17 30 9 16 1017.9 1017.5 0.0
29/12:00pm 24.9 20.2 5.2 28 10.0 S 19 30 10 16 1018.4 1017.9 0.0
29/11:30am 25.1 20.2 5.3 28 10.2 S 20 35 11 19 1018.7 1018.2 0.0
29/11:00am 24.2 18.2 5.5 30 9.5 SW 26 35 14 19 1019.1 1018.6 0.0
29/10:30am 23.7 19.0 6.0 32 9.1 S 20 35 11 19 1019.0 1018.5 0.0
29/10:00am 22.6 18.5 6.0 34 8.5 S 17 24 9 13 1019.2 1018.7 0.0
29/09:30am 21.3 17.4 5.2 35 8.0 S 15 22 8 12 1019.3 1018.8 0.0
29/09:00am 20.6 16.7 5.4 37 7.6 SSE 15 26 8 14 1019.2 1018.7 0.0
29/08:30am 19.3 16.0 4.6 38 7.2 S 11 15 6 8 1019.1 1018.6 0.0
29/08:00am 17.6 14.6 4.2 41 6.4 S 9 13 5 7 1019.1 1018.6 0.0
29/07:30am 15.1 13.1 4.2 48 5.1 S 4 9 2 5 1019.0 1018.5 0.0
29/07:00am 11.3 9.9 3.6 59 3.4 CALM 0 0 0 0 1018.6 1018.1 0.0
29/06:30am 10.7 8.1 3.0 59 3.4 S 6 7 3 4 1018.2 1017.7 0.0
29/06:00am 10.2 7.4 2.3 58 3.4 S 6 7 3 4 1017.8 1017.4 0.0
29/05:30am 11.2 9.7 3.0 57 3.6 CALM 0 6 0 3 1017.5 1017.1 0.0
29/05:00am 11.4 9.1 2.7 55 3.8 SSE 4 7 2 4 1017.2 1016.8 0.0
29/04:30am 10.8 8.4 2.1 55 3.7 SSW 4 6 2 3 1017.0 1016.6 0.0
29/04:00am 11.7 8.9 2.2 52 4.1 SSW 6 7 3 4 1016.8 1016.3 0.0
29/03:30am 12.2 10.5 2.1 50 4.4 CALM 0 4 0 2 1016.6 1016.1 0.0
29/03:00am 13.3 10.3 1.9 46 5.0 SSW 7 9 4 5 1016.4 1015.9 0.0
29/02:30am 14.5 11.2 2.4 44 5.4 SSW 9 11 5 6 1016.4 1015.9 0.0
29/02:00am 14.5 11.1 2.1 43 5.5 SSW 9 13 5 7 1016.4 1015.9 0.0
29/01:30am 15.1 11.3 2.0 41 5.8 SSW 11 13 6 7 1016.5 1016.0 0.0
29/01:00am 15.6 11.9 2.1 40 6.1 SSW 11 15 6 8 1016.5 1016.0 0.0
29/12:30am 16.0 11.7 1.3 37 6.5 SSW 13 15 7 8 1016.6 1016.1 0.0
29/12:00am 17.0 12.7 1.0 34 7.1 SSW 13 15 7 8 1016.7 1016.2 0.0
 
Date/Time
EDT
Temp
°C
App
Temp
°C
Dew
Point
Rel
Hum
%
Delta-T
°C
Wind Press
QNH
hPa
Press
MSL
hPa
Rain
since 9 am
mm
Dir
 
Spd
km/h
Gust
km/h
Spd
kts
Gust
kts
28/11:30pm 16.8 12.5 0.9 34 7.0 SSW 13 15 7 8 1016.7 1016.2 0.0
28/11:00pm 17.6 13.6 0.7 32 7.5 SSW 11 15 6 8 1016.6 1016.1 0.0
28/10:30pm 17.8 13.8 0.5 31 7.7 SSW 11 13 6 7 1016.5 1016.0 0.0
28/10:00pm 18.0 14.3 0.2 30 7.8 S 9 11 5 6 1016.4 1015.9 0.0
28/09:30pm 18.6 14.9 0.2 29 8.2 SSW 9 11 5 6 1016.3 1015.8 0.0
28/09:00pm 18.8 15.2 0.4 29 8.2 S 9 13 5 7 1016.1 1015.6 0.0
28/08:30pm 18.3 15.0 0.0 29 8.1 SW 7 9 4 5 1015.8 1015.3 0.0
28/08:00pm 19.8 16.1 -0.2 26 8.9 SW 9 11 5 6 1015.4 1014.9 0.0
28/07:30pm 21.8 17.3 -0.2 23 9.9 WSW 13 17 7 9 1015.0 1014.5 0.0
28/07:00pm 24.2 18.4 -0.2 20 11.2 SW 20 26 11 14 1014.7 1014.2 0.0
28/06:30pm 25.1 18.0 -0.9 18 11.9 SW 26 35 14 19 1014.4 1013.9 0.0
28/06:00pm 25.6 19.3 -1.2 17 12.2 WSW 22 30 12 16 1014.3 1013.8 0.0
28/05:30pm 25.8 19.9 -1.1 17 12.3 SSW 20 26 11 14 1014.2 1013.7 0.0
28/05:00pm 26.0 18.2 -0.9 17 12.4 WSW 30 44 16 24 1014.3 1013.8 0.0
28/04:30pm 25.9 19.2 -1.0 17 12.4 SW 24 35 13 19 1014.3 1013.8 0.0
28/04:00pm 26.2 18.0 -0.8 17 12.5 WSW 32 37 17 20 1014.5 1014.0 0.0

Other Formats:

Comma delimited format used in spreadsheet applications
http://www.bom.gov.au/fwo/IDN60801/IDN60801.95710.axf

JavaScript Object Notation format (JSON) in row-major order
http://www.bom.gov.au/fwo/IDN60801/IDN60801.95710.json